Terminal Aerodrome Forecast
Issued by NWS

Home | Current Version | Previous Version | Text Only | Print | Product List | Glossary Off
Versions: 1 2 3 4 5 6 7 8 9 10 11 12 13 14 15 16 17 18 19 20 21

949
FTUS43 KABR 261720
TAFPIR
TAF
KPIR 261720Z 2618/2718 35015KT P6SM SKC
     FM270100 31007KT P6SM SKC
     FM270400 25005KT P6SM SKC
     FM271300 31008KT P6SM SKC
     FM271700 35012KT P6SM SKC=

USA.gov is the U.S. government's official web portal to all federal, state and local government web resources and services.